Flugplatz Baumholder Army Air Field

Für ETEK sind keine METAR/TAF Berichte vorhanden.
Es werden die Flugwettermeldungen vom Flugplatz Ramstein Air Base in 31 km Entfernung angezeigt.

Bericht für ETAR

vom 30.09. um 21:55 UTC

kein Wind

Sichtweite 10 km oder mehr

keine Wolken

Temperatur 5.1°C

Taupunkt 3.1°C

Luftfeuchtigkeit 87%

Luftdruck 1012 hPa

ETAR 302155Z AUTO 00000KT 9999 CLR 05/03 A2989 RMK AO2 SLP131 T00510031

Prognose für ETAR

vom 30.09. um 18:00 UTC

Am 30.09. zwischen 18:00 UTC und 05:00 UTC

Wind 6 kt aus 220°

Sichtweite 10 km oder mehr

aufgelockert bewölkt in 3000 ft


Zwischen 05:00 und 06:00 UTC übergehend zu

Wind 10 kt aus 210° in Böen 20 kt

Sichtweite 8000 m

schwacher Regen

bedeckt in 2000 ft


Zwischen 07:00 UTC und 12:00 UTC zeitweise

Wind 15 kt aus 230° in Böen 25 kt

bedeckt in 500 ft


Zwischen 12:00 und 13:00 UTC übergehend zu

Wind 10 kt aus 250° in Böen 15 kt

Sichtweite 9000 m

schwacher Regenschauer

bedeckt in 2000 ft


Zwischen 16:00 und 17:00 UTC übergehend zu

Wind 12 kt aus 260°

Sichtweite 9000 m

schwacher Regenschauer

bedeckt in 2000 ft

TAF ETAR 301800Z 3018/0124 22006KT 9999 SCT030 QNH2986INS BECMG 0105/0106 21010G20KT 8000 -RA OVC020 QNH2980INS TEMPO 0107/0112 23015G25KT OVC005 510004 BECMG 0112/0113 25010G15KT 9000 -SHRA OVC020 QNH2984INS BECMG 0116/0117 26012KT 9000 -SHRA OVC020 550209 QNH2990INS TX14/0116Z TN07/0101Z
Impressum